sensor_id;sensor_type;location;lat;lon;timestamp;temperature;humidity
52979;DHT22;51106;53.186;6.598;2022-07-23T00:01:01;14.90;99.90
52979;DHT22;51106;53.186;6.598;2022-07-23T00:03:06;14.90;99.90
52979;DHT22;51106;53.186;6.598;2022-07-23T00:05:09;14.90;99.90
52979;DHT22;51106;53.186;6.598;2022-07-23T00:07:11;14.90;99.90
52979;DHT22;51106;53.186;6.598;2022-07-23T00:09:13;15.30;99.90
52979;DHT22;51106;53.186;6.598;2022-07-23T00:11:15;14.90;99.90
52979;DHT22;51106;53.186;6.598;2022-07-23T00:13:19;14.90;99.90
52979;DHT22;51106;53.186;6.598;2022-07-23T00:15:21;14.80;99.90
52979;DHT22;51106;53.186;6.598;2022-07-23T00:17:23;14.90;99.90
52979;DHT22;51106;53.186;6.598;2022-07-23T00:19:25;14.80;99.90
52979;DHT22;51106;53.186;6.598;2022-07-23T00:21:27;14.80;99.90
52979;DHT22;51106;53.186;6.598;2022-07-23T00:23:29;14.70;99.90
52979;DHT22;51106;53.186;6.598;2022-07-23T00:25:32;14.70;99.90
52979;DHT22;51106;53.186;6.598;2022-07-23T00:27:34;14.70;99.90
52979;DHT22;51106;53.186;6.598;2022-07-23T00:29:36;14.70;99.90
52979;DHT22;51106;53.186;6.598;2022-07-23T00:31:38;14.70;99.90
52979;DHT22;51106;53.186;6.598;2022-07-23T00:33:40;14.70;99.90
52979;DHT22;51106;53.186;6.598;2022-07-23T00:35:43;14.70;99.90
52979;DHT22;51106;53.186;6.598;2022-07-23T00:37:45;14.70;99.90
52979;DHT22;51106;53.186;6.598;2022-07-23T00:39:48;14.70;99.90
52979;DHT22;51106;53.186;6.598;2022-07-23T00:41:50;14.70;99.90
52979;DHT22;51106;53.186;6.598;2022-07-23T00:43:52;14.70;99.90
52979;DHT22;51106;53.186;6.598;2022-07-23T00:45:54;14.70;99.90
52979;DHT22;51106;53.186;6.598;2022-07-23T00:47:57;14.60;99.90
52979;DHT22;51106;53.186;6.598;2022-07-23T00:50:00;14.60;99.90
52979;DHT22;51106;53.186;6.598;2022-07-23T00:52:02;14.60;99.90
52979;DHT22;51106;53.186;6.598;2022-07-23T00:54:04;14.60;99.90
52979;DHT22;51106;53.186;6.598;2022-07-23T00:56:07;14.60;99.90
52979;DHT22;51106;53.186;6.598;2022-07-23T00:58:09;14.60;99.90
52979;DHT22;51106;53.186;6.598;2022-07-23T01:00:13;14.60;99.90
52979;DHT22;51106;53.186;6.598;2022-07-23T01:02:15;14.50;99.90
52979;DHT22;51106;53.186;6.598;2022-07-23T01:04:17;14.50;99.90
52979;DHT22;51106;53.186;6.598;2022-07-23T01:06:20;14.50;99.90
52979;DHT22;51106;53.186;6.598;2022-07-23T01:08:22;14.50;99.90
52979;DHT22;51106;53.186;6.598;2022-07-23T01:10:25;14.50;99.90
52979;DHT22;51106;53.186;6.598;2022-07-23T01:12:33;14.50;99.90
52979;DHT22;51106;53.186;6.598;2022-07-23T01:14:35;14.40;99.90
52979;DHT22;51106;53.186;6.598;2022-07-23T01:16:37;14.50;99.90
52979;DHT22;51106;53.186;6.598;2022-07-23T01:18:39;14.40;99.90
52979;DHT22;51106;53.186;6.598;2022-07-23T01:20:41;14.50;99.90
52979;DHT22;51106;53.186;6.598;2022-07-23T01:22:44;14.50;99.90
52979;DHT22;51106;53.186;6.598;2022-07-23T01:24:46;14.40;99.90
52979;DHT22;51106;53.186;6.598;2022-07-23T01:26:51;14.50;99.90
52979;DHT22;51106;53.186;6.598;2022-07-23T01:28:53;14.50;99.90
52979;DHT22;51106;53.186;6.598;2022-07-23T01:30:55;14.40;99.90
52979;DHT22;51106;53.186;6.598;2022-07-23T01:32:57;14.40;99.90
52979;DHT22;51106;53.186;6.598;2022-07-23T01:34:59;14.40;99.90
52979;DHT22;51106;53.186;6.598;2022-07-23T01:37:01;14.40;99.90
52979;DHT22;51106;53.186;6.598;2022-07-23T01:39:04;14.40;99.90
52979;DHT22;51106;53.186;6.598;2022-07-23T01:41:08;14.40;99.90
52979;DHT22;51106;53.186;6.598;2022-07-23T01:43:11;14.40;99.90
52979;DHT22;51106;53.186;6.598;2022-07-23T01:45:14;14.30;99.90
52979;DHT22;51106;53.186;6.598;2022-07-23T01:47:16;14.40;99.90
52979;DHT22;51106;53.186;6.598;2022-07-23T01:49:18;14.30;99.90
52979;DHT22;51106;53.186;6.598;2022-07-23T01:51:21;14.00;99.90
52979;DHT22;51106;53.186;6.598;2022-07-23T01:53:23;14.20;99.90
52979;DHT22;51106;53.186;6.598;2022-07-23T01:55:25;14.80;99.90
52979;DHT22;51106;53.186;6.598;2022-07-23T01:57:27;14.10;99.90
52979;DHT22;51106;53.186;6.598;2022-07-23T01:59:29;14.10;99.90
52979;DHT22;51106;53.186;6.598;2022-07-23T02:01:31;14.10;99.90
52979;DHT22;51106;53.186;6.598;2022-07-23T02:03:33;14.00;99.90
52979;DHT22;51106;53.186;6.598;2022-07-23T02:05:35;14.00;99.90
52979;DHT22;51106;53.186;6.598;2022-07-23T02:07:38;14.00;99.90
52979;DHT22;51106;53.186;6.598;2022-07-23T02:09:40;14.00;99.90
52979;DHT22;51106;53.186;6.598;2022-07-23T02:11:42;14.00;99.90
52979;DHT22;51106;53.186;6.598;2022-07-23T02:13:44;14.00;99.90
52979;DHT22;51106;53.186;6.598;2022-07-23T02:15:47;14.10;99.90
52979;DHT22;51106;53.186;6.598;2022-07-23T02:17:49;14.10;99.90
52979;DHT22;51106;53.186;6.598;2022-07-23T02:19:51;14.00;99.90
52979;DHT22;51106;53.186;6.598;2022-07-23T02:21:53;14.10;99.90
52979;DHT22;51106;53.186;6.598;2022-07-23T02:23:56;14.00;99.90
52979;DHT22;51106;53.186;6.598;2022-07-23T02:25:58;14.00;99.90
52979;DHT22;51106;53.186;6.598;2022-07-23T02:28:01;14.00;99.90
52979;DHT22;51106;53.186;6.598;2022-07-23T02:30:04;14.00;99.90
52979;DHT22;51106;53.186;6.598;2022-07-23T02:32:06;13.90;99.90
52979;DHT22;51106;53.186;6.598;2022-07-23T02:34:08;13.90;99.90
52979;DHT22;51106;53.186;6.598;2022-07-23T02:36:13;14.00;99.90
52979;DHT22;51106;53.186;6.598;2022-07-23T02:38:15;13.90;99.90
52979;DHT22;51106;53.186;6.598;2022-07-23T02:40:19;13.90;99.90
52979;DHT22;51106;53.186;6.598;2022-07-23T02:42:22;13.90;99.90
52979;DHT22;51106;53.186;6.598;2022-07-23T02:44:25;14.00;99.90
52979;DHT22;51106;53.186;6.598;2022-07-23T02:46:27;14.00;99.90
52979;DHT22;51106;53.186;6.598;2022-07-23T02:48:30;14.00;99.90
52979;DHT22;51106;53.186;6.598;2022-07-23T02:50:32;14.00;99.90
52979;DHT22;51106;53.186;6.598;2022-07-23T02:52:34;14.00;99.90
52979;DHT22;51106;53.186;6.598;2022-07-23T02:54:37;14.00;99.90
52979;DHT22;51106;53.186;6.598;2022-07-23T02:56:39;14.10;99.90
52979;DHT22;51106;53.186;6.598;2022-07-23T02:58:41;14.50;99.90
52979;DHT22;51106;53.186;6.598;2022-07-23T03:00:43;14.10;99.90
52979;DHT22;51106;53.186;6.598;2022-07-23T03:02:45;14.10;99.90
52979;DHT22;51106;53.186;6.598;2022-07-23T03:04:48;14.10;99.90
52979;DHT22;51106;53.186;6.598;2022-07-23T03:06:50;14.40;99.90
52979;DHT22;51106;53.186;6.598;2022-07-23T03:08:52;14.50;99.90
52979;DHT22;51106;53.186;6.598;2022-07-23T03:10:54;14.10;99.90
52979;DHT22;51106;53.186;6.598;2022-07-23T03:12:56;14.10;99.90
52979;DHT22;51106;53.186;6.598;2022-07-23T03:14:58;14.10;99.90
52979;DHT22;51106;53.186;6.598;2022-07-23T03:17:00;14.20;99.90
52979;DHT22;51106;53.186;6.598;2022-07-23T03:19:02;14.10;99.90
52979;DHT22;51106;53.186;6.598;2022-07-23T03:21:07;14.10;99.90
52979;DHT22;51106;53.186;6.598;2022-07-23T03:23:09;14.10;99.90
52979;DHT22;51106;53.186;6.598;2022-07-23T03:25:11;14.00;99.90
52979;DHT22;51106;53.186;6.598;2022-07-23T03:27:13;14.00;99.90
52979;DHT22;51106;53.186;6.598;2022-07-23T03:29:15;14.00;99.90
52979;DHT22;51106;53.186;6.598;2022-07-23T03:31:19;14.10;99.90
52979;DHT22;51106;53.186;6.598;2022-07-23T03:33:22;14.10;99.90
52979;DHT22;51106;53.186;6.598;2022-07-23T03:35:24;14.00;99.90
52979;DHT22;51106;53.186;6.598;2022-07-23T03:37:27;14.00;99.90
52979;DHT22;51106;53.186;6.598;2022-07-23T03:39:29;14.00;99.90
52979;DHT22;51106;53.186;6.598;2022-07-23T03:41:32;14.10;99.90
52979;DHT22;51106;53.186;6.598;2022-07-23T03:43:34;14.00;99.90
52979;DHT22;51106;53.186;6.598;2022-07-23T03:45:37;14.10;99.90
52979;DHT22;51106;53.186;6.598;2022-07-23T03:47:39;14.00;99.90
52979;DHT22;51106;53.186;6.598;2022-07-23T03:49:41;14.10;99.90
52979;DHT22;51106;53.186;6.598;2022-07-23T03:51:43;14.50;99.90
52979;DHT22;51106;53.186;6.598;2022-07-23T03:53:45;14.10;99.90
52979;DHT22;51106;53.186;6.598;2022-07-23T03:55:47;14.10;99.90
52979;DHT22;51106;53.186;6.598;2022-07-23T03:57:49;14.10;99.90
52979;DHT22;51106;53.186;6.598;2022-07-23T03:59:51;14.10;99.90
52979;DHT22;51106;53.186;6.598;2022-07-23T04:01:53;14.10;99.90
52979;DHT22;51106;53.186;6.598;2022-07-23T04:03:55;14.10;99.90
52979;DHT22;51106;53.186;6.598;2022-07-23T04:05:57;14.10;99.90
52979;DHT22;51106;53.186;6.598;2022-07-23T04:08:00;14.10;99.90
52979;DHT22;51106;53.186;6.598;2022-07-23T04:10:03;14.10;99.90
52979;DHT22;51106;53.186;6.598;2022-07-23T04:12:05;14.10;99.90
52979;DHT22;51106;53.186;6.598;2022-07-23T04:14:07;14.10;99.90
52979;DHT22;51106;53.186;6.598;2022-07-23T04:16:09;14.10;99.90
52979;DHT22;51106;53.186;6.598;2022-07-23T04:18:12;14.00;99.90
52979;DHT22;51106;53.186;6.598;2022-07-23T04:20:14;14.00;99.90
52979;DHT22;51106;53.186;6.598;2022-07-23T04:22:16;14.60;99.90
52979;DHT22;51106;53.186;6.598;2022-07-23T04:24:18;14.10;99.90
52979;DHT22;51106;53.186;6.598;2022-07-23T04:26:20;14.10;99.90
52979;DHT22;51106;53.186;6.598;2022-07-23T04:28:23;14.10;99.90
52979;DHT22;51106;53.186;6.598;2022-07-23T04:30:25;14.10;99.90
52979;DHT22;51106;53.186;6.598;2022-07-23T04:32:27;14.10;99.90
52979;DHT22;51106;53.186;6.598;2022-07-23T04:34:29;14.10;99.90
52979;DHT22;51106;53.186;6.598;2022-07-23T04:36:31;14.10;99.90
52979;DHT22;51106;53.186;6.598;2022-07-23T04:38:33;14.10;99.90
52979;DHT22;51106;53.186;6.598;2022-07-23T04:40:35;14.20;99.90
52979;DHT22;51106;53.186;6.598;2022-07-23T04:42:37;14.20;99.90
52979;DHT22;51106;53.186;6.598;2022-07-23T04:44:40;14.10;99.90
52979;DHT22;51106;53.186;6.598;2022-07-23T04:46:42;14.10;99.90
52979;DHT22;51106;53.186;6.598;2022-07-23T04:48:44;14.20;99.90
52979;DHT22;51106;53.186;6.598;2022-07-23T04:50:46;14.20;99.90
52979;DHT22;51106;53.186;6.598;2022-07-23T04:52:49;14.20;99.90
52979;DHT22;51106;53.186;6.598;2022-07-23T04:54:51;14.20;99.90
52979;DHT22;51106;53.186;6.598;2022-07-23T04:56:53;14.20;99.90
52979;DHT22;51106;53.186;6.598;2022-07-23T04:58:55;14.20;99.90
52979;DHT22;51106;53.186;6.598;2022-07-23T05:01:00;14.20;99.90
52979;DHT22;51106;53.186;6.598;2022-07-23T05:03:02;14.20;99.90
52979;DHT22;51106;53.186;6.598;2022-07-23T05:05:05;14.20;99.90
52979;DHT22;51106;53.186;6.598;2022-07-23T05:07:07;14.20;99.90
52979;DHT22;51106;53.186;6.598;2022-07-23T05:09:09;14.20;99.90
52979;DHT22;51106;53.186;6.598;2022-07-23T05:11:11;14.30;99.90
52979;DHT22;51106;53.186;6.598;2022-07-23T05:13:17;14.30;99.90
52979;DHT22;51106;53.186;6.598;2022-07-23T05:15:19;14.30;99.90
52979;DHT22;51106;53.186;6.598;2022-07-23T05:17:21;14.30;99.90
52979;DHT22;51106;53.186;6.598;2022-07-23T05:19:23;14.40;99.90
52979;DHT22;51106;53.186;6.598;2022-07-23T05:21:26;14.40;99.90
52979;DHT22;51106;53.186;6.598;2022-07-23T05:23:28;14.50;99.90
52979;DHT22;51106;53.186;6.598;2022-07-23T05:25:30;14.60;99.90
52979;DHT22;51106;53.186;6.598;2022-07-23T05:27:32;14.60;99.90
52979;DHT22;51106;53.186;6.598;2022-07-23T05:29:34;14.70;99.90
52979;DHT22;51106;53.186;6.598;2022-07-23T05:31:37;14.80;99.90
52979;DHT22;51106;53.186;6.598;2022-07-23T05:33:39;14.80;99.90
52979;DHT22;51106;53.186;6.598;2022-07-23T05:35:41;14.80;99.90
52979;DHT22;51106;53.186;6.598;2022-07-23T05:37:43;14.90;99.90
52979;DHT22;51106;53.186;6.598;2022-07-23T05:39:45;15.00;99.90
52979;DHT22;51106;53.186;6.598;2022-07-23T05:41:47;15.00;99.90
52979;DHT22;51106;53.186;6.598;2022-07-23T05:43:49;15.00;99.90
52979;DHT22;51106;53.186;6.598;2022-07-23T05:45:52;15.00;99.90
52979;DHT22;51106;53.186;6.598;2022-07-23T05:47:54;15.00;99.90
52979;DHT22;51106;53.186;6.598;2022-07-23T05:49:56;15.00;99.90
52979;DHT22;51106;53.186;6.598;2022-07-23T05:52:05;15.00;99.90
52979;DHT22;51106;53.186;6.598;2022-07-23T05:54:07;15.00;99.90
52979;DHT22;51106;53.186;6.598;2022-07-23T05:56:09;15.20;99.90
52979;DHT22;51106;53.186;6.598;2022-07-23T05:58:11;15.30;99.90
52979;DHT22;51106;53.186;6.598;2022-07-23T06:00:13;15.50;99.90
52979;DHT22;51106;53.186;6.598;2022-07-23T06:02:15;15.60;99.90
52979;DHT22;51106;53.186;6.598;2022-07-23T06:04:18;15.60;99.90
52979;DHT22;51106;53.186;6.598;2022-07-23T06:06:20;15.60;99.90
52979;DHT22;51106;53.186;6.598;2022-07-23T06:08:22;15.90;99.90
52979;DHT22;51106;53.186;6.598;2022-07-23T06:10:24;15.70;99.90
52979;DHT22;51106;53.186;6.598;2022-07-23T06:12:26;15.70;99.90
52979;DHT22;51106;53.186;6.598;2022-07-23T06:14:28;15.70;99.90
52979;DHT22;51106;53.186;6.598;2022-07-23T06:16:30;15.70;99.90
52979;DHT22;51106;53.186;6.598;2022-07-23T06:18:32;15.70;99.90
52979;DHT22;51106;53.186;6.598;2022-07-23T06:20:34;15.70;99.90
52979;DHT22;51106;53.186;6.598;2022-07-23T06:22:37;15.80;99.90
52979;DHT22;51106;53.186;6.598;2022-07-23T06:24:39;15.80;99.90
52979;DHT22;51106;53.186;6.598;2022-07-23T06:26:41;15.80;99.90
52979;DHT22;51106;53.186;6.598;2022-07-23T06:28:43;15.80;99.90
52979;DHT22;51106;53.186;6.598;2022-07-23T06:30:48;15.90;99.90
52979;DHT22;51106;53.186;6.598;2022-07-23T06:32:50;15.90;99.90
52979;DHT22;51106;53.186;6.598;2022-07-23T06:34:52;15.90;99.90
52979;DHT22;51106;53.186;6.598;2022-07-23T06:36:54;16.00;99.90
52979;DHT22;51106;53.186;6.598;2022-07-23T06:38:56;16.00;99.90
52979;DHT22;51106;53.186;6.598;2022-07-23T06:40:59;16.00;99.90
52979;DHT22;51106;53.186;6.598;2022-07-23T06:43:01;16.10;99.90
52979;DHT22;51106;53.186;6.598;2022-07-23T06:45:05;16.10;99.90
52979;DHT22;51106;53.186;6.598;2022-07-23T06:47:08;16.10;99.90
52979;DHT22;51106;53.186;6.598;2022-07-23T06:49:10;16.20;99.90
52979;DHT22;51106;53.186;6.598;2022-07-23T06:51:12;16.30;99.90
52979;DHT22;51106;53.186;6.598;2022-07-23T06:53:16;16.20;99.90
52979;DHT22;51106;53.186;6.598;2022-07-23T06:55:17;16.20;99.90
52979;DHT22;51106;53.186;6.598;2022-07-23T06:57:19;16.30;99.90
52979;DHT22;51106;53.186;6.598;2022-07-23T06:59:23;16.40;99.90
52979;DHT22;51106;53.186;6.598;2022-07-23T07:01:25;16.50;99.90
52979;DHT22;51106;53.186;6.598;2022-07-23T07:03:28;16.70;99.90
52979;DHT22;51106;53.186;6.598;2022-07-23T07:05:30;16.80;99.90
52979;DHT22;51106;53.186;6.598;2022-07-23T07:07:33;16.90;99.90
52979;DHT22;51106;53.186;6.598;2022-07-23T07:09:35;17.00;99.90
52979;DHT22;51106;53.186;6.598;2022-07-23T07:11:37;17.00;99.90
52979;DHT22;51106;53.186;6.598;2022-07-23T07:13:39;17.20;99.90
52979;DHT22;51106;53.186;6.598;2022-07-23T07:15:41;17.30;99.90
52979;DHT22;51106;53.186;6.598;2022-07-23T07:17:46;17.50;99.90
52979;DHT22;51106;53.186;6.598;2022-07-23T07:19:49;17.60;99.90
52979;DHT22;51106;53.186;6.598;2022-07-23T07:21:51;17.80;99.90
52979;DHT22;51106;53.186;6.598;2022-07-23T07:23:53;18.00;99.90
52979;DHT22;51106;53.186;6.598;2022-07-23T07:26:13;18.10;99.90
52979;DHT22;51106;53.186;6.598;2022-07-23T07:28:15;18.40;99.90
52979;DHT22;51106;53.186;6.598;2022-07-23T07:30:17;18.60;99.90
52979;DHT22;51106;53.186;6.598;2022-07-23T07:32:19;18.70;99.90
52979;DHT22;51106;53.186;6.598;2022-07-23T07:34:41;19.00;99.90
52979;DHT22;51106;53.186;6.598;2022-07-23T07:36:43;19.20;99.90
52979;DHT22;51106;53.186;6.598;2022-07-23T07:38:45;19.30;98.30
52979;DHT22;51106;53.186;6.598;2022-07-23T07:40:47;19.40;98.30
52979;DHT22;51106;53.186;6.598;2022-07-23T07:42:52;19.50;97.90
52979;DHT22;51106;53.186;6.598;2022-07-23T07:44:54;19.50;96.00
52979;DHT22;51106;53.186;6.598;2022-07-23T07:46:56;19.20;92.60
52979;DHT22;51106;53.186;6.598;2022-07-23T07:48:59;19.00;92.90
52979;DHT22;51106;53.186;6.598;2022-07-23T07:51:01;18.70;92.70
52979;DHT22;51106;53.186;6.598;2022-07-23T07:53:04;18.50;92.80
52979;DHT22;51106;53.186;6.598;2022-07-23T07:55:08;18.40;92.70
52979;DHT22;51106;53.186;6.598;2022-07-23T07:57:11;18.50;93.30
52979;DHT22;51106;53.186;6.598;2022-07-23T07:59:13;18.70;92.70
52979;DHT22;51106;53.186;6.598;2022-07-23T08:01:16;19.00;90.90
52979;DHT22;51106;53.186;6.598;2022-07-23T08:03:19;19.20;90.10
52979;DHT22;51106;53.186;6.598;2022-07-23T08:05:24;19.20;87.60
52979;DHT22;51106;53.186;6.598;2022-07-23T08:07:29;19.00;86.70
52979;DHT22;51106;53.186;6.598;2022-07-23T08:09:31;18.90;86.90
52979;DHT22;51106;53.186;6.598;2022-07-23T08:11:33;19.00;88.10
52979;DHT22;51106;53.186;6.598;2022-07-23T08:13:35;19.20;85.30
52979;DHT22;51106;53.186;6.598;2022-07-23T08:15:37;19.40;83.80
52979;DHT22;51106;53.186;6.598;2022-07-23T08:17:41;19.60;82.30
52979;DHT22;51106;53.186;6.598;2022-07-23T08:19:44;19.80;83.10
52979;DHT22;51106;53.186;6.598;2022-07-23T08:21:47;20.00;84.70
52979;DHT22;51106;53.186;6.598;2022-07-23T08:23:49;20.10;83.00
52979;DHT22;51106;53.186;6.598;2022-07-23T08:25:51;20.00;80.10
52979;DHT22;51106;53.186;6.598;2022-07-23T08:27:57;20.00;79.20
52979;DHT22;51106;53.186;6.598;2022-07-23T08:29:59;20.00;79.20
52979;DHT22;51106;53.186;6.598;2022-07-23T08:32:01;20.00;80.70
52979;DHT22;51106;53.186;6.598;2022-07-23T08:34:23;20.20;79.70
52979;DHT22;51106;53.186;6.598;2022-07-23T08:36:25;20.20;79.10
52979;DHT22;51106;53.186;6.598;2022-07-23T08:38:33;20.10;78.40
52979;DHT22;51106;53.186;6.598;2022-07-23T08:40:38;19.90;77.80
52979;DHT22;51106;53.186;6.598;2022-07-23T08:42:47;19.70;77.60
52979;DHT22;51106;53.186;6.598;2022-07-23T08:44:50;19.60;78.10
52979;DHT22;51106;53.186;6.598;2022-07-23T08:46:52;19.60;78.00
52979;DHT22;51106;53.186;6.598;2022-07-23T08:48:55;19.50;76.70
52979;DHT22;51106;53.186;6.598;2022-07-23T08:51:00;19.50;77.80
52979;DHT22;51106;53.186;6.598;2022-07-23T08:53:06;19.40;79.60
52979;DHT22;51106;53.186;6.598;2022-07-23T08:55:09;19.40;80.10
52979;DHT22;51106;53.186;6.598;2022-07-23T08:57:11;19.30;81.10
52979;DHT22;51106;53.186;6.598;2022-07-23T08:59:13;19.30;83.10
52979;DHT22;51106;53.186;6.598;2022-07-23T09:01:15;19.20;82.80
52979;DHT22;51106;53.186;6.598;2022-07-23T09:03:20;19.20;83.10
52979;DHT22;51106;53.186;6.598;2022-07-23T09:05:22;19.20;82.60
52979;DHT22;51106;53.186;6.598;2022-07-23T09:07:24;19.20;83.60
52979;DHT22;51106;53.186;6.598;2022-07-23T09:09:26;19.20;82.80
52979;DHT22;51106;53.186;6.598;2022-07-23T09:11:31;19.30;82.80
52979;DHT22;51106;53.186;6.598;2022-07-23T09:14:00;19.70;83.10
52979;DHT22;51106;53.186;6.598;2022-07-23T09:16:26;19.80;81.30
52979;DHT22;51106;53.186;6.598;2022-07-23T09:20:40;19.70;80.20
52979;DHT22;51106;53.186;6.598;2022-07-23T09:22:46;19.60;80.20
52979;DHT22;51106;53.186;6.598;2022-07-23T09:25:17;19.50;80.00
52979;DHT22;51106;53.186;6.598;2022-07-23T09:27:20;19.40;81.30
52979;DHT22;51106;53.186;6.598;2022-07-23T09:29:24;19.30;82.10
52979;DHT22;51106;53.186;6.598;2022-07-23T09:31:43;19.20;83.60
52979;DHT22;51106;53.186;6.598;2022-07-23T09:33:46;19.20;83.40
52979;DHT22;51106;53.186;6.598;2022-07-23T09:35:55;19.10;84.60
52979;DHT22;51106;53.186;6.598;2022-07-23T09:38:03;19.10;86.20
52979;DHT22;51106;53.186;6.598;2022-07-23T09:40:06;19.10;85.80
52979;DHT22;51106;53.186;6.598;2022-07-23T09:42:25;19.20;87.00
52979;DHT22;51106;53.186;6.598;2022-07-23T09:44:27;19.50;85.90
52979;DHT22;51106;53.186;6.598;2022-07-23T09:46:29;19.30;86.20
52979;DHT22;51106;53.186;6.598;2022-07-23T09:48:31;19.20;85.30
52979;DHT22;51106;53.186;6.598;2022-07-23T09:50:34;19.30;85.80
52979;DHT22;51106;53.186;6.598;2022-07-23T09:52:45;19.30;87.40
52979;DHT22;51106;53.186;6.598;2022-07-23T09:54:58;19.40;85.30
52979;DHT22;51106;53.186;6.598;2022-07-23T09:57:10;19.20;85.40
52979;DHT22;51106;53.186;6.598;2022-07-23T09:59:17;19.20;83.60
52979;DHT22;51106;53.186;6.598;2022-07-23T10:01:21;19.20;83.80
52979;DHT22;51106;53.186;6.598;2022-07-23T10:03:24;19.30;84.40
52979;DHT22;51106;53.186;6.598;2022-07-23T10:05:27;19.30;83.40
52979;DHT22;51106;53.186;6.598;2022-07-23T10:07:34;19.30;83.40
52979;DHT22;51106;53.186;6.598;2022-07-23T10:09:39;19.30;83.30
52979;DHT22;51106;53.186;6.598;2022-07-23T10:11:41;19.30;82.40
52979;DHT22;51106;53.186;6.598;2022-07-23T10:13:43;19.30;82.00
52979;DHT22;51106;53.186;6.598;2022-07-23T10:15:50;19.30;83.70
52979;DHT22;51106;53.186;6.598;2022-07-23T10:17:52;19.40;82.50
52979;DHT22;51106;53.186;6.598;2022-07-23T10:19:54;19.40;80.90
52979;DHT22;51106;53.186;6.598;2022-07-23T10:22:02;19.40;81.50
52979;DHT22;51106;53.186;6.598;2022-07-23T10:26:38;19.30;84.30
52979;DHT22;51106;53.186;6.598;2022-07-23T10:36:09;19.10;84.50
52979;DHT22;51106;53.186;6.598;2022-07-23T10:38:23;19.20;84.70
52979;DHT22;51106;53.186;6.598;2022-07-23T10:40:28;19.20;85.00
52979;DHT22;51106;53.186;6.598;2022-07-23T10:42:33;19.20;85.90
52979;DHT22;51106;53.186;6.598;2022-07-23T10:44:41;19.30;86.60
52979;DHT22;51106;53.186;6.598;2022-07-23T10:47:02;19.30;86.50
52979;DHT22;51106;53.186;6.598;2022-07-23T10:49:28;19.40;85.20
52979;DHT22;51106;53.186;6.598;2022-07-23T10:51:31;19.40;88.80
52979;DHT22;51106;53.186;6.598;2022-07-23T10:53:53;19.50;87.00
52979;DHT22;51106;53.186;6.598;2022-07-23T10:55:55;19.50;86.10
52979;DHT22;51106;53.186;6.598;2022-07-23T10:57:58;19.40;84.90
52979;DHT22;51106;53.186;6.598;2022-07-23T11:02:23;19.30;85.70
52979;DHT22;51106;53.186;6.598;2022-07-23T11:04:53;19.30;87.90
52979;DHT22;51106;53.186;6.598;2022-07-23T11:09:25;19.10;85.40
52979;DHT22;51106;53.186;6.598;2022-07-23T11:11:28;19.10;86.60
52979;DHT22;51106;53.186;6.598;2022-07-23T11:18:06;19.30;86.30
52979;DHT22;51106;53.186;6.598;2022-07-23T11:22:37;19.20;86.30
52979;DHT22;51106;53.186;6.598;2022-07-23T11:24:50;19.20;87.70
52979;DHT22;51106;53.186;6.598;2022-07-23T11:26:56;19.20;89.00
52979;DHT22;51106;53.186;6.598;2022-07-23T11:31:27;19.00;87.80
52979;DHT22;51106;53.186;6.598;2022-07-23T11:33:29;18.90;88.60
52979;DHT22;51106;53.186;6.598;2022-07-23T11:35:31;18.90;90.30
52979;DHT22;51106;53.186;6.598;2022-07-23T11:37:34;19.00;90.00
52979;DHT22;51106;53.186;6.598;2022-07-23T11:39:37;19.10;90.10
52979;DHT22;51106;53.186;6.598;2022-07-23T11:41:46;19.10;89.70
52979;DHT22;51106;53.186;6.598;2022-07-23T11:43:48;19.20;86.70
52979;DHT22;51106;53.186;6.598;2022-07-23T11:45:53;19.20;86.80
52979;DHT22;51106;53.186;6.598;2022-07-23T11:47:56;19.30;87.00
52979;DHT22;51106;53.186;6.598;2022-07-23T11:49:59;19.20;87.70
52979;DHT22;51106;53.186;6.598;2022-07-23T11:52:13;19.30;89.30
52979;DHT22;51106;53.186;6.598;2022-07-23T11:54:16;19.40;90.00
52979;DHT22;51106;53.186;6.598;2022-07-23T11:56:18;19.50;88.80
52979;DHT22;51106;53.186;6.598;2022-07-23T11:58:20;19.60;89.50
52979;DHT22;51106;53.186;6.598;2022-07-23T12:00:24;19.80;90.10
52979;DHT22;51106;53.186;6.598;2022-07-23T12:02:29;19.90;86.60
52979;DHT22;51106;53.186;6.598;2022-07-23T12:04:42;19.90;85.70
52979;DHT22;51106;53.186;6.598;2022-07-23T12:06:45;19.90;87.30
52979;DHT22;51106;53.186;6.598;2022-07-23T12:08:47;19.80;88.10
52979;DHT22;51106;53.186;6.598;2022-07-23T12:10:49;19.80;88.50
52979;DHT22;51106;53.186;6.598;2022-07-23T12:12:55;20.00;90.20
52979;DHT22;51106;53.186;6.598;2022-07-23T12:14:58;20.20;90.30
52979;DHT22;51106;53.186;6.598;2022-07-23T12:17:07;20.70;89.40
52979;DHT22;51106;53.186;6.598;2022-07-23T12:19:09;20.70;84.00
52979;DHT22;51106;53.186;6.598;2022-07-23T12:21:11;20.90;80.50
52979;DHT22;51106;53.186;6.598;2022-07-23T12:23:17;20.90;81.40
52979;DHT22;51106;53.186;6.598;2022-07-23T12:25:24;20.80;82.30
52979;DHT22;51106;53.186;6.598;2022-07-23T12:27:27;20.70;82.90
52979;DHT22;51106;53.186;6.598;2022-07-23T12:29:35;20.90;81.50
52979;DHT22;51106;53.186;6.598;2022-07-23T12:31:38;20.90;77.20
52979;DHT22;51106;53.186;6.598;2022-07-23T12:33:46;20.70;80.10
52979;DHT22;51106;53.186;6.598;2022-07-23T12:35:50;20.90;82.80
52979;DHT22;51106;53.186;6.598;2022-07-23T12:38:00;21.00;80.10
52979;DHT22;51106;53.186;6.598;2022-07-23T12:40:26;21.10;78.50
52979;DHT22;51106;53.186;6.598;2022-07-23T12:42:42;21.30;79.70
52979;DHT22;51106;53.186;6.598;2022-07-23T12:45:06;21.60;81.40
52979;DHT22;51106;53.186;6.598;2022-07-23T12:47:09;21.90;76.40
52979;DHT22;51106;53.186;6.598;2022-07-23T12:49:25;21.90;75.10
52979;DHT22;51106;53.186;6.598;2022-07-23T12:51:31;21.70;73.20
52979;DHT22;51106;53.186;6.598;2022-07-23T12:53:42;21.70;76.00
52979;DHT22;51106;53.186;6.598;2022-07-23T12:55:49;21.60;77.10
52979;DHT22;51106;53.186;6.598;2022-07-23T12:58:19;21.50;77.40
52979;DHT22;51106;53.186;6.598;2022-07-23T13:00:21;21.60;77.30
52979;DHT22;51106;53.186;6.598;2022-07-23T13:02:45;21.80;77.10
52979;DHT22;51106;53.186;6.598;2022-07-23T13:04:47;22.20;77.50
52979;DHT22;51106;53.186;6.598;2022-07-23T13:06:52;22.40;76.70
52979;DHT22;51106;53.186;6.598;2022-07-23T13:08:54;22.70;74.30
52979;DHT22;51106;53.186;6.598;2022-07-23T13:10:57;22.90;70.00
52979;DHT22;51106;53.186;6.598;2022-07-23T13:12:59;23.00;67.10
52979;DHT22;51106;53.186;6.598;2022-07-23T13:15:01;23.00;65.50
52979;DHT22;51106;53.186;6.598;2022-07-23T13:17:03;22.80;63.70
52979;DHT22;51106;53.186;6.598;2022-07-23T13:19:08;22.70;65.40
52979;DHT22;51106;53.186;6.598;2022-07-23T13:21:18;22.50;64.00
52979;DHT22;51106;53.186;6.598;2022-07-23T13:23:23;22.30;66.70
52979;DHT22;51106;53.186;6.598;2022-07-23T13:25:26;22.30;69.60
52979;DHT22;51106;53.186;6.598;2022-07-23T13:27:29;22.30;71.40
52979;DHT22;51106;53.186;6.598;2022-07-23T13:29:31;22.10;71.20